sensor_id;sensor_type;location;lat;lon;timestamp;P1;durP1;ratioP1;P2;durP2;ratioP2
59702;SDS011;45570;48.782;8.332;2022-08-14T05:31:59;3.20;;;2.90;;
59702;SDS011;45570;48.782;8.332;2022-08-14T05:34:32;3.88;;;3.50;;
59702;SDS011;45570;48.782;8.332;2022-08-14T05:37:01;3.33;;;3.03;;
59702;SDS011;45570;48.782;8.332;2022-08-14T05:39:32;4.13;;;3.28;;
59702;SDS011;45570;48.782;8.332;2022-08-14T05:42:01;3.58;;;2.90;;
59702;SDS011;45570;48.782;8.332;2022-08-14T05:44:48;3.42;;;3.10;;
59702;SDS011;45570;48.782;8.332;2022-08-14T05:47:21;5.03;;;3.38;;
59702;SDS011;45570;48.782;8.332;2022-08-14T05:49:59;2.92;;;2.72;;
59702;SDS011;45570;48.782;8.332;2022-08-14T05:52:30;4.60;;;3.33;;
59702;SDS011;45570;48.782;8.332;2022-08-14T05:55:06;4.60;;;2.90;;
59702;SDS011;45570;48.782;8.332;2022-08-14T05:57:46;3.08;;;2.80;;
59702;SDS011;45570;48.782;8.332;2022-08-14T06:00:19;3.63;;;2.72;;
59702;SDS011;45570;48.782;8.332;2022-08-14T06:02:57;3.85;;;2.90;;
59702;SDS011;45570;48.782;8.332;2022-08-14T06:08:05;4.00;;;3.47;;
59702;SDS011;45570;48.782;8.332;2022-08-14T06:11:02;3.50;;;2.88;;
59702;SDS011;45570;48.782;8.332;2022-08-14T06:13:33;3.35;;;3.05;;
59702;SDS011;45570;48.782;8.332;2022-08-14T06:16:13;3.50;;;2.95;;
59702;SDS011;45570;48.782;8.332;2022-08-14T06:18:45;3.42;;;3.13;;
59702;SDS011;45570;48.782;8.332;2022-08-14T06:21:18;3.17;;;2.97;;
59702;SDS011;45570;48.782;8.332;2022-08-14T06:23:48;3.33;;;2.88;;
59702;SDS011;45570;48.782;8.332;2022-08-14T06:26:17;3.65;;;3.17;;
59702;SDS011;45570;48.782;8.332;2022-08-14T06:28:48;3.40;;;3.10;;
59702;SDS011;45570;48.782;8.332;2022-08-14T06:31:21;3.63;;;3.00;;
59702;SDS011;45570;48.782;8.332;2022-08-14T06:33:50;3.58;;;2.90;;
59702;SDS011;45570;48.782;8.332;2022-08-14T06:36:39;2.90;;;2.70;;
59702;SDS011;45570;48.782;8.332;2022-08-14T06:39:08;2.85;;;2.65;;
59702;SDS011;45570;48.782;8.332;2022-08-14T06:41:37;3.45;;;2.90;;
59702;SDS011;45570;48.782;8.332;2022-08-14T06:44:24;3.00;;;2.80;;
59702;SDS011;45570;48.782;8.332;2022-08-14T06:47:00;4.22;;;2.80;;
59702;SDS011;45570;48.782;8.332;2022-08-14T06:49:31;2.92;;;2.72;;
59702;SDS011;45570;48.782;8.332;2022-08-14T06:52:11;3.63;;;3.33;;
59702;SDS011;45570;48.782;8.332;2022-08-14T06:54:42;4.07;;;2.50;;
59702;SDS011;45570;48.782;8.332;2022-08-14T06:57:11;2.78;;;2.58;;
59702;SDS011;45570;48.782;8.332;2022-08-14T06:59:40;2.75;;;2.55;;
59702;SDS011;45570;48.782;8.332;2022-08-14T07:02:11;3.72;;;2.92;;
59702;SDS011;45570;48.782;8.332;2022-08-14T07:04:57;3.00;;;2.70;;
59702;SDS011;45570;48.782;8.332;2022-08-14T07:07:49;3.03;;;2.80;;
59702;SDS011;45570;48.782;8.332;2022-08-14T07:10:18;4.95;;;2.80;;
59702;SDS011;45570;48.782;8.332;2022-08-14T07:12:51;2.90;;;2.70;;
59702;SDS011;45570;48.782;8.332;2022-08-14T07:15:30;2.70;;;2.50;;
59702;SDS011;45570;48.782;8.332;2022-08-14T07:18:07;2.63;;;2.42;;
59702;SDS011;45570;48.782;8.332;2022-08-14T07:20:38;2.88;;;2.67;;
59702;SDS011;45570;48.782;8.332;2022-08-14T07:23:10;2.95;;;2.75;;
59702;SDS011;45570;48.782;8.332;2022-08-14T07:25:47;3.08;;;2.78;;
59702;SDS011;45570;48.782;8.332;2022-08-14T07:28:18;3.03;;;2.83;;
59702;SDS011;45570;48.782;8.332;2022-08-14T07:30:50;3.58;;;3.28;;
59702;SDS011;45570;48.782;8.332;2022-08-14T07:33:37;6.05;;;2.83;;
59702;SDS011;45570;48.782;8.332;2022-08-14T07:36:16;3.95;;;2.88;;
59702;SDS011;45570;48.782;8.332;2022-08-14T07:38:56;3.00;;;2.80;;
59702;SDS011;45570;48.782;8.332;2022-08-14T07:41:26;4.18;;;2.72;;
59702;SDS011;45570;48.782;8.332;2022-08-14T07:46:50;3.55;;;2.97;;
59702;SDS011;45570;48.782;8.332;2022-08-14T07:49:22;3.08;;;2.88;;
59702;SDS011;45570;48.782;8.332;2022-08-14T07:51:51;3.33;;;3.03;;
59702;SDS011;45570;48.782;8.332;2022-08-14T07:54:20;3.22;;;2.85;;
59702;SDS011;45570;48.782;8.332;2022-08-14T07:56:56;3.08;;;2.78;;
59702;SDS011;45570;48.782;8.332;2022-08-14T07:59:37;4.32;;;2.60;;
59702;SDS011;45570;48.782;8.332;2022-08-14T08:02:12;3.15;;;2.80;;
59702;SDS011;45570;48.782;8.332;2022-08-14T08:04:47;5.20;;;2.88;;
59702;SDS011;45570;48.782;8.332;2022-08-14T08:07:20;5.07;;;2.78;;
59702;SDS011;45570;48.782;8.332;2022-08-14T08:09:56;2.88;;;2.67;;
59702;SDS011;45570;48.782;8.332;2022-08-14T08:12:28;2.33;;;2.10;;
59702;SDS011;45570;48.782;8.332;2022-08-14T08:14:58;3.00;;;2.70;;
59702;SDS011;45570;48.782;8.332;2022-08-14T08:17:36;3.00;;;2.80;;
59702;SDS011;45570;48.782;8.332;2022-08-14T08:20:14;3.08;;;2.60;;
59702;SDS011;45570;48.782;8.332;2022-08-14T08:22:46;3.03;;;2.72;;
59702;SDS011;45570;48.782;8.332;2022-08-14T08:25:22;3.85;;;2.47;;
59702;SDS011;45570;48.782;8.332;2022-08-14T08:27:59;3.13;;;2.47;;
59702;SDS011;45570;48.782;8.332;2022-08-14T08:30:35;2.95;;;2.40;;
59702;SDS011;45570;48.782;8.332;2022-08-14T08:33:15;2.80;;;2.60;;
59702;SDS011;45570;48.782;8.332;2022-08-14T08:35:46;3.53;;;2.58;;
59702;SDS011;45570;48.782;8.332;2022-08-14T08:38:17;2.95;;;2.65;;
59702;SDS011;45570;48.782;8.332;2022-08-14T08:41:11;2.55;;;2.35;;
59702;SDS011;45570;48.782;8.332;2022-08-14T08:43:42;2.80;;;2.10;;
59702;SDS011;45570;48.782;8.332;2022-08-14T08:46:13;2.28;;;2.08;;
59702;SDS011;45570;48.782;8.332;2022-08-14T08:48:50;2.80;;;2.20;;
59702;SDS011;45570;48.782;8.332;2022-08-14T08:51:23;2.45;;;2.28;;
59702;SDS011;45570;48.782;8.332;2022-08-14T08:54:02;2.40;;;2.30;;
59702;SDS011;45570;48.782;8.332;2022-08-14T08:56:42;3.17;;;2.40;;
59702;SDS011;45570;48.782;8.332;2022-08-14T08:59:19;2.20;;;2.00;;
59702;SDS011;45570;48.782;8.332;2022-08-14T09:01:57;2.40;;;2.30;;
59702;SDS011;45570;48.782;8.332;2022-08-14T09:04:33;2.10;;;2.00;;
59702;SDS011;45570;48.782;8.332;2022-08-14T09:07:12;3.03;;;1.92;;
59702;SDS011;45570;48.782;8.332;2022-08-14T09:09:43;2.00;;;1.90;;
59702;SDS011;45570;48.782;8.332;2022-08-14T09:12:25;2.20;;;2.10;;
59702;SDS011;45570;48.782;8.332;2022-08-14T09:15:12;4.28;;;1.83;;
59702;SDS011;45570;48.782;8.332;2022-08-14T09:17:41;2.55;;;2.10;;
59702;SDS011;45570;48.782;8.332;2022-08-14T09:20:11;2.30;;;2.20;;
59702;SDS011;45570;48.782;8.332;2022-08-14T09:22:58;1.98;;;1.88;;
59702;SDS011;45570;48.782;8.332;2022-08-14T09:25:27;2.10;;;1.77;;
59702;SDS011;45570;48.782;8.332;2022-08-14T09:28:18;1.98;;;1.88;;
59702;SDS011;45570;48.782;8.332;2022-08-14T09:30:51;3.20;;;2.10;;
59702;SDS011;45570;48.782;8.332;2022-08-14T09:36:36;2.63;;;2.10;;
59702;SDS011;45570;48.782;8.332;2022-08-14T09:39:18;2.05;;;1.95;;
59702;SDS011;45570;48.782;8.332;2022-08-14T09:42:02;1.95;;;1.85;;
59702;SDS011;45570;48.782;8.332;2022-08-14T09:47:47;2.05;;;1.85;;
59702;SDS011;45570;48.782;8.332;2022-08-14T09:50:22;1.67;;;1.58;;
59702;SDS011;45570;48.782;8.332;2022-08-14T09:52:55;1.90;;;1.80;;
59702;SDS011;45570;48.782;8.332;2022-08-14T09:55:32;3.83;;;2.03;;
59702;SDS011;45570;48.782;8.332;2022-08-14T09:58:09;1.98;;;1.88;;
59702;SDS011;45570;48.782;8.332;2022-08-14T10:00:49;1.80;;;1.70;;
59702;SDS011;45570;48.782;8.332;2022-08-14T10:03:26;1.58;;;1.58;;
59702;SDS011;45570;48.782;8.332;2022-08-14T10:06:03;1.88;;;1.77;;
59702;SDS011;45570;48.782;8.332;2022-08-14T10:08:41;2.00;;;1.90;;
59702;SDS011;45570;48.782;8.332;2022-08-14T10:11:19;1.88;;;1.77;;
59702;SDS011;45570;48.782;8.332;2022-08-14T10:14:10;2.25;;;1.58;;
59702;SDS011;45570;48.782;8.332;2022-08-14T10:17:01;1.58;;;1.48;;
59702;SDS011;45570;48.782;8.332;2022-08-14T10:19:33;1.98;;;1.88;;
59702;SDS011;45570;48.782;8.332;2022-08-14T10:22:04;2.05;;;1.58;;
59702;SDS011;45570;48.782;8.332;2022-08-14T10:24:56;1.60;;;1.50;;
59702;SDS011;45570;48.782;8.332;2022-08-14T10:27:27;1.70;;;1.60;;
59702;SDS011;45570;48.782;8.332;2022-08-14T10:29:58;1.73;;;1.63;;
59702;SDS011;45570;48.782;8.332;2022-08-14T10:32:41;1.58;;;1.50;;
59702;SDS011;45570;48.782;8.332;2022-08-14T10:35:17;1.42;;;1.33;;
59702;SDS011;45570;48.782;8.332;2022-08-14T10:37:49;1.70;;;1.60;;
59702;SDS011;45570;48.782;8.332;2022-08-14T10:40:24;1.70;;;1.60;;
59702;SDS011;45570;48.782;8.332;2022-08-14T10:43:18;1.85;;;1.75;;
59702;SDS011;45570;48.782;8.332;2022-08-14T10:45:53;1.55;;;1.45;;
59702;SDS011;45570;48.782;8.332;2022-08-14T10:48:54;1.92;;;1.83;;
59702;SDS011;45570;48.782;8.332;2022-08-14T10:51:24;1.70;;;1.60;;
59702;SDS011;45570;48.782;8.332;2022-08-14T10:54:03;1.65;;;1.55;;
59702;SDS011;45570;48.782;8.332;2022-08-14T10:56:53;1.55;;;1.45;;
59702;SDS011;45570;48.782;8.332;2022-08-14T10:59:24;1.77;;;1.67;;
59702;SDS011;45570;48.782;8.332;2022-08-14T11:02:02;2.97;;;1.67;;
59702;SDS011;45570;48.782;8.332;2022-08-14T11:04:32;1.80;;;1.70;;
59702;SDS011;45570;48.782;8.332;2022-08-14T11:07:03;1.60;;;1.50;;
59702;SDS011;45570;48.782;8.332;2022-08-14T11:09:51;1.85;;;1.75;;
59702;SDS011;45570;48.782;8.332;2022-08-14T11:12:21;2.43;;;2.23;;
59702;SDS011;45570;48.782;8.332;2022-08-14T11:15:11;1.90;;;1.60;;
59702;SDS011;45570;48.782;8.332;2022-08-14T11:17:41;1.80;;;1.70;;
59702;SDS011;45570;48.782;8.332;2022-08-14T11:20:15;1.60;;;1.50;;
59702;SDS011;45570;48.782;8.332;2022-08-14T11:22:50;1.50;;;1.40;;
59702;SDS011;45570;48.782;8.332;2022-08-14T11:28:09;1.55;;;1.50;;
59702;SDS011;45570;48.782;8.332;2022-08-14T11:30:46;1.80;;;1.70;;
59702;SDS011;45570;48.782;8.332;2022-08-14T11:33:22;3.17;;;1.90;;
59702;SDS011;45570;48.782;8.332;2022-08-14T11:35:57;1.60;;;1.50;;
59702;SDS011;45570;48.782;8.332;2022-08-14T11:38:27;1.70;;;1.60;;
59702;SDS011;45570;48.782;8.332;2022-08-14T11:41:03;1.45;;;1.45;;
59702;SDS011;45570;48.782;8.332;2022-08-14T11:43:37;3.05;;;1.50;;
59702;SDS011;45570;48.782;8.332;2022-08-14T11:46:16;2.13;;;2.00;;
59702;SDS011;45570;48.782;8.332;2022-08-14T11:48:56;1.80;;;1.70;;
59702;SDS011;45570;48.782;8.332;2022-08-14T11:51:32;1.65;;;1.55;;
59702;SDS011;45570;48.782;8.332;2022-08-14T11:54:19;2.15;;;2.03;;
59702;SDS011;45570;48.782;8.332;2022-08-14T11:57:01;1.80;;;1.70;;
59702;SDS011;45570;48.782;8.332;2022-08-14T11:59:31;2.17;;;2.08;;
59702;SDS011;45570;48.782;8.332;2022-08-14T12:02:09;2.05;;;1.90;;
59702;SDS011;45570;48.782;8.332;2022-08-14T12:04:58;2.00;;;1.90;;
59702;SDS011;45570;48.782;8.332;2022-08-14T12:07:30;2.55;;;2.15;;
59702;SDS011;45570;48.782;8.332;2022-08-14T12:10:00;2.50;;;2.30;;
59702;SDS011;45570;48.782;8.332;2022-08-14T12:12:49;2.47;;;2.08;;
59702;SDS011;45570;48.782;8.332;2022-08-14T12:15:29;2.20;;;2.10;;
59702;SDS011;45570;48.782;8.332;2022-08-14T12:18:00;5.63;;;2.40;;
59702;SDS011;45570;48.782;8.332;2022-08-14T12:20:30;2.00;;;1.90;;
59702;SDS011;45570;48.782;8.332;2022-08-14T12:23:03;2.25;;;2.15;;
59702;SDS011;45570;48.782;8.332;2022-08-14T12:25:32;1.98;;;1.88;;
59702;SDS011;45570;48.782;8.332;2022-08-14T12:28:04;2.78;;;2.25;;
59702;SDS011;45570;48.782;8.332;2022-08-14T12:30:58;2.30;;;2.10;;
59702;SDS011;45570;48.782;8.332;2022-08-14T12:33:29;2.20;;;2.10;;
59702;SDS011;45570;48.782;8.332;2022-08-14T12:36:00;2.35;;;2.25;;
59702;SDS011;45570;48.782;8.332;2022-08-14T12:38:32;2.30;;;2.10;;
59702;SDS011;45570;48.782;8.332;2022-08-14T12:41:03;3.97;;;2.28;;
59702;SDS011;45570;48.782;8.332;2022-08-14T12:43:42;1.98;;;1.88;;
59702;SDS011;45570;48.782;8.332;2022-08-14T12:46:19;2.40;;;1.88;;
59702;SDS011;45570;48.782;8.332;2022-08-14T12:48:56;3.72;;;1.77;;
59702;SDS011;45570;48.782;8.332;2022-08-14T12:51:28;1.80;;;1.70;;
59702;SDS011;45570;48.782;8.332;2022-08-14T12:53:57;2.30;;;1.80;;
59702;SDS011;45570;48.782;8.332;2022-08-14T12:56:27;3.58;;;1.90;;
59702;SDS011;45570;48.782;8.332;2022-08-14T12:59:00;3.08;;;1.88;;
59702;SDS011;45570;48.782;8.332;2022-08-14T13:01:31;2.00;;;1.90;;
59702;SDS011;45570;48.782;8.332;2022-08-14T13:04:22;2.25;;;2.05;;
59702;SDS011;45570;48.782;8.332;2022-08-14T13:06:52;1.90;;;1.70;;
59702;SDS011;45570;48.782;8.332;2022-08-14T13:09:21;1.92;;;1.75;;
59702;SDS011;45570;48.782;8.332;2022-08-14T13:12:03;1.90;;;1.80;;
59702;SDS011;45570;48.782;8.332;2022-08-14T13:14:53;1.80;;;1.70;;
59702;SDS011;45570;48.782;8.332;2022-08-14T13:17:25;2.25;;;2.15;;
59702;SDS011;45570;48.782;8.332;2022-08-14T13:20:05;2.13;;;2.03;;
59702;SDS011;45570;48.782;8.332;2022-08-14T13:22:50;2.10;;;2.00;;
59702;SDS011;45570;48.782;8.332;2022-08-14T13:25:23;2.35;;;2.13;;
59702;SDS011;45570;48.782;8.332;2022-08-14T13:27:53;2.67;;;2.47;;
59702;SDS011;45570;48.782;8.332;2022-08-14T13:30:23;2.60;;;2.40;;
59702;SDS011;45570;48.782;8.332;2022-08-14T13:32:53;2.53;;;2.35;;
59702;SDS011;45570;48.782;8.332;2022-08-14T13:35:26;3.80;;;2.92;;
59702;SDS011;45570;48.782;8.332;2022-08-14T13:37:55;3.28;;;2.97;;
59702;SDS011;45570;48.782;8.332;2022-08-14T13:40:24;3.67;;;3.38;;
59702;SDS011;45570;48.782;8.332;2022-08-14T13:42:55;3.28;;;3.08;;
59702;SDS011;45570;48.782;8.332;2022-08-14T13:45:25;3.30;;;3.00;;
59702;SDS011;45570;48.782;8.332;2022-08-14T13:48:14;3.42;;;3.13;;
59702;SDS011;45570;48.782;8.332;2022-08-14T13:51:02;3.17;;;2.97;;
59702;SDS011;45570;48.782;8.332;2022-08-14T13:53:40;3.70;;;3.40;;
59702;SDS011;45570;48.782;8.332;2022-08-14T13:56:30;3.30;;;3.10;;
59702;SDS011;45570;48.782;8.332;2022-08-14T13:59:02;3.22;;;3.03;;
59702;SDS011;45570;48.782;8.332;2022-08-14T14:01:32;3.50;;;3.20;;
59702;SDS011;45570;48.782;8.332;2022-08-14T14:04:12;5.45;;;3.47;;
59702;SDS011;45570;48.782;8.332;2022-08-14T14:06:47;3.17;;;2.97;;
59702;SDS011;45570;48.782;8.332;2022-08-14T14:09:19;3.40;;;3.13;;
59702;SDS011;45570;48.782;8.332;2022-08-14T14:11:49;3.25;;;3.05;;
59702;SDS011;45570;48.782;8.332;2022-08-14T14:14:22;5.95;;;3.42;;
59702;SDS011;45570;48.782;8.332;2022-08-14T14:17:11;3.00;;;2.70;;
59702;SDS011;45570;48.782;8.332;2022-08-14T14:19:40;4.97;;;2.50;;
59702;SDS011;45570;48.782;8.332;2022-08-14T14:22:14;3.03;;;2.58;;
59702;SDS011;45570;48.782;8.332;2022-08-14T14:25:04;3.03;;;2.72;;
59702;SDS011;45570;48.782;8.332;2022-08-14T14:27:34;2.70;;;2.50;;
59702;SDS011;45570;48.782;8.332;2022-08-14T14:30:07;2.50;;;2.30;;
59702;SDS011;45570;48.782;8.332;2022-08-14T14:32:57;2.50;;;2.40;;
59702;SDS011;45570;48.782;8.332;2022-08-14T14:35:36;2.60;;;2.40;;
59702;SDS011;45570;48.782;8.332;2022-08-14T14:38:08;2.60;;;2.20;;
59702;SDS011;45570;48.782;8.332;2022-08-14T14:40:44;2.65;;;2.22;;
59702;SDS011;45570;48.782;8.332;2022-08-14T14:43:26;1.98;;;1.88;;
59702;SDS011;45570;48.782;8.332;2022-08-14T14:45:56;2.53;;;2.33;;
59702;SDS011;45570;48.782;8.332;2022-08-14T14:48:25;2.28;;;2.10;;
59702;SDS011;45570;48.782;8.332;2022-08-14T14:50:57;5.22;;;2.30;;
59702;SDS011;45570;48.782;8.332;2022-08-14T14:53:30;4.18;;;1.95;;
59702;SDS011;45570;48.782;8.332;2022-08-14T14:56:05;2.83;;;2.10;;
59702;SDS011;45570;48.782;8.332;2022-08-14T14:58:56;2.53;;;2.33;;
59702;SDS011;45570;48.782;8.332;2022-08-14T15:01:26;2.17;;;2.08;;
59702;SDS011;45570;48.782;8.332;2022-08-14T15:03:55;2.15;;;2.05;;
59702;SDS011;45570;48.782;8.332;2022-08-14T15:06:29;2.20;;;2.00;;
59702;SDS011;45570;48.782;8.332;2022-08-14T15:09:00;3.05;;;2.00;;
59702;SDS011;45570;48.782;8.332;2022-08-14T15:11:30;1.85;;;1.75;;
59702;SDS011;45570;48.782;8.332;2022-08-14T15:14:00;1.75;;;1.65;;
59702;SDS011;45570;48.782;8.332;2022-08-14T15:16:50;2.53;;;2.17;;
59702;SDS011;45570;48.782;8.332;2022-08-14T15:19:24;1.95;;;1.75;;
59702;SDS011;45570;48.782;8.332;2022-08-14T15:21:54;1.90;;;1.70;;
59702;SDS011;45570;48.782;8.332;2022-08-14T15:24:25;2.42;;;2.22;;
59702;SDS011;45570;48.782;8.332;2022-08-14T15:26:54;2.45;;;1.70;;
59702;SDS011;45570;48.782;8.332;2022-08-14T15:29:25;4.57;;;2.20;;
59702;SDS011;45570;48.782;8.332;2022-08-14T15:32:01;1.98;;;1.88;;
59702;SDS011;45570;48.782;8.332;2022-08-14T15:34:35;2.70;;;2.50;;
59702;SDS011;45570;48.782;8.332;2022-08-14T15:37:16;5.18;;;1.90;;
59702;SDS011;45570;48.782;8.332;2022-08-14T15:39:47;2.00;;;1.90;;
59702;SDS011;45570;48.782;8.332;2022-08-14T15:42:18;4.50;;;2.17;;
59702;SDS011;45570;48.782;8.332;2022-08-14T15:44:50;3.15;;;1.88;;
59702;SDS011;45570;48.782;8.332;2022-08-14T15:47:27;1.98;;;1.88;;
59702;SDS011;45570;48.782;8.332;2022-08-14T15:49:59;2.00;;;1.90;;
59702;SDS011;45570;48.782;8.332;2022-08-14T15:52:30;3.25;;;2.00;;
59702;SDS011;45570;48.782;8.332;2022-08-14T15:55:05;2.03;;;1.77;;
59702;SDS011;45570;48.782;8.332;2022-08-14T15:57:38;2.25;;;2.10;;
59702;SDS011;45570;48.782;8.332;2022-08-14T16:00:28;2.92;;;1.77;;
59702;SDS011;45570;48.782;8.332;2022-08-14T16:03:17;4.63;;;1.80;;
59702;SDS011;45570;48.782;8.332;2022-08-14T16:06:01;6.65;;;1.90;;
59702;SDS011;45570;48.782;8.332;2022-08-14T16:08:31;2.10;;;2.00;;
59702;SDS011;45570;48.782;8.332;2022-08-14T16:11:02;2.40;;;2.20;;
59702;SDS011;45570;48.782;8.332;2022-08-14T16:13:35;1.83;;;1.73;;
59702;SDS011;45570;48.782;8.332;2022-08-14T16:16:09;7.55;;;2.13;;
59702;SDS011;45570;48.782;8.332;2022-08-14T16:19:00;2.15;;;1.98;;
59702;SDS011;45570;48.782;8.332;2022-08-14T16:21:35;2.13;;;2.03;;
59702;SDS011;45570;48.782;8.332;2022-08-14T16:24:26;1.80;;;1.70;;
59702;SDS011;45570;48.782;8.332;2022-08-14T16:27:22;2.95;;;2.00;;
59702;SDS011;45570;48.782;8.332;2022-08-14T16:30:07;1.92;;;1.73;;
59702;SDS011;45570;48.782;8.332;2022-08-14T16:32:53;2.00;;;1.90;;
59702;SDS011;45570;48.782;8.332;2022-08-14T16:35:24;2.28;;;2.08;;
59702;SDS011;45570;48.782;8.332;2022-08-14T16:38:14;3.85;;;2.30;;
59702;SDS011;45570;48.782;8.332;2022-08-14T16:41:04;2.15;;;2.05;;
59702;SDS011;45570;48.782;8.332;2022-08-14T16:43:56;3.75;;;2.20;;
59702;SDS011;45570;48.782;8.332;2022-08-14T16:46:30;3.60;;;2.05;;
59702;SDS011;45570;48.782;8.332;2022-08-14T16:49:09;5.88;;;2.60;;
59702;SDS011;45570;48.782;8.332;2022-08-14T16:51:39;3.22;;;2.83;;
59702;SDS011;45570;48.782;8.332;2022-08-14T16:54:11;5.93;;;3.38;;
59702;SDS011;45570;48.782;8.332;2022-08-14T16:57:11;5.28;;;3.53;;
59702;SDS011;45570;48.782;8.332;2022-08-14T16:59:48;5.18;;;3.05;;
59702;SDS011;45570;48.782;8.332;2022-08-14T17:02:33;3.72;;;3.30;;
59702;SDS011;45570;48.782;8.332;2022-08-14T17:05:15;4.32;;;3.80;;
59702;SDS011;45570;48.782;8.332;2022-08-14T17:11:02;6.13;;;3.15;;
59702;SDS011;45570;48.782;8.332;2022-08-14T17:13:38;4.15;;;2.72;;
59702;SDS011;45570;48.782;8.332;2022-08-14T17:16:29;9.05;;;3.45;;
59702;SDS011;45570;48.782;8.332;2022-08-14T17:19:03;5.88;;;3.13;;
59702;SDS011;45570;48.782;8.332;2022-08-14T17:21:39;3.55;;;2.88;;
59702;SDS011;45570;48.782;8.332;2022-08-14T17:24:13;5.53;;;3.35;;
59702;SDS011;45570;48.782;8.332;2022-08-14T17:27:04;4.45;;;3.78;;
59702;SDS011;45570;48.782;8.332;2022-08-14T17:29:34;6.95;;;3.08;;
59702;SDS011;45570;48.782;8.332;2022-08-14T17:32:23;6.85;;;3.38;;
59702;SDS011;45570;48.782;8.332;2022-08-14T17:35:23;4.28;;;3.20;;
59702;SDS011;45570;48.782;8.332;2022-08-14T17:38:13;3.50;;;3.20;;
59702;SDS011;45570;48.782;8.332;2022-08-14T17:44:13;5.07;;;3.20;;
59702;SDS011;45570;48.782;8.332;2022-08-14T17:47:07;3.85;;;3.40;;
59702;SDS011;45570;48.782;8.332;2022-08-14T17:49:44;6.38;;;3.40;;
59702;SDS011;45570;48.782;8.332;2022-08-14T17:52:18;3.92;;;2.80;;
59702;SDS011;45570;48.782;8.332;2022-08-14T17:55:03;4.65;;;3.70;;
59702;SDS011;45570;48.782;8.332;2022-08-14T17:57:33;7.50;;;3.70;;
59702;SDS011;45570;48.782;8.332;2022-08-14T18:00:09;5.18;;;2.90;;
59702;SDS011;45570;48.782;8.332;2022-08-14T18:02:40;3.85;;;3.03;;
59702;SDS011;45570;48.782;8.332;2022-08-14T18:05:18;6.72;;;2.88;;
59702;SDS011;45570;48.782;8.332;2022-08-14T18:08:09;5.50;;;3.17;;
59702;SDS011;45570;48.782;8.332;2022-08-14T18:10:58;5.60;;;2.75;;
59702;SDS011;45570;48.782;8.332;2022-08-14T18:13:29;7.10;;;3.20;;
59702;SDS011;45570;48.782;8.332;2022-08-14T18:16:17;4.60;;;3.25;;
59702;SDS011;45570;48.782;8.332;2022-08-14T18:18:48;3.50;;;3.20;;
59702;SDS011;45570;48.782;8.332;2022-08-14T18:21:20;6.55;;;3.03;;
59702;SDS011;45570;48.782;8.332;2022-08-14T18:24:11;3.20;;;2.78;;
59702;SDS011;45570;48.782;8.332;2022-08-14T18:26:58;3.30;;;3.00;;
59702;SDS011;45570;48.782;8.332;2022-08-14T18:29:39;4.65;;;2.80;;
59702;SDS011;45570;48.782;8.332;2022-08-14T18:32:37;5.32;;;3.42;;
59702;SDS011;45570;48.782;8.332;2022-08-14T18:35:21;4.15;;;2.85;;
59702;SDS011;45570;48.782;8.332;2022-08-14T18:38:16;3.22;;;2.85;;
59702;SDS011;45570;48.782;8.332;2022-08-14T18:41:23;6.30;;;2.83;;
59702;SDS011;45570;48.782;8.332;2022-08-14T18:44:03;6.20;;;2.90;;
59702;SDS011;45570;48.782;8.332;2022-08-14T18:52:51;3.92;;;2.95;;
59702;SDS011;45570;48.782;8.332;2022-08-14T18:58:21;4.55;;;2.92;;
59702;SDS011;45570;48.782;8.332;2022-08-14T19:00:59;6.72;;;2.72;;
59702;SDS011;45570;48.782;8.332;2022-08-14T19:06:35;3.95;;;3.25;;
59702;SDS011;45570;48.782;8.332;2022-08-14T19:09:06;3.30;;;3.05;;
59702;SDS011;45570;48.782;8.332;2022-08-14T19:11:46;5.43;;;3.10;;
59702;SDS011;45570;48.782;8.332;2022-08-14T19:14:41;3.35;;;2.80;;
59702;SDS011;45570;48.782;8.332;2022-08-14T19:20:08;3.67;;;2.75;;
59702;SDS011;45570;48.782;8.332;2022-08-14T19:22:38;3.00;;;2.63;;
59702;SDS011;45570;48.782;8.332;2022-08-14T19:25:08;4.70;;;3.08;;
59702;SDS011;45570;48.782;8.332;2022-08-14T19:27:41;5.30;;;2.63;;
59702;SDS011;45570;48.782;8.332;2022-08-14T19:30:18;3.78;;;2.97;;
59702;SDS011;45570;48.782;8.332;2022-08-14T19:32:50;5.32;;;2.72;;
59702;SDS011;45570;48.782;8.332;2022-08-14T19:35:43;4.15;;;2.63;;
59702;SDS011;45570;48.782;8.332;2022-08-14T19:41:28;3.38;;;2.65;;
59702;SDS011;45570;48.782;8.332;2022-08-14T19:44:08;5.53;;;2.60;;
59702;SDS011;45570;48.782;8.332;2022-08-14T19:46:40;2.47;;;2.28;;
59702;SDS011;45570;48.782;8.332;2022-08-14T19:49:29;5.55;;;2.88;;
59702;SDS011;45570;48.782;8.332;2022-08-14T19:52:20;2.90;;;2.60;;
59702;SDS011;45570;48.782;8.332;2022-08-14T19:54:50;5.07;;;2.67;;
59702;SDS011;45570;48.782;8.332;2022-08-14T19:57:20;4.07;;;2.83;;
59702;SDS011;45570;48.782;8.332;2022-08-14T20:00:00;4.77;;;2.80;;
59702;SDS011;45570;48.782;8.332;2022-08-14T20:02:59;3.28;;;2.90;;
59702;SDS011;45570;48.782;8.332;2022-08-14T20:05:37;4.50;;;3.35;;
59702;SDS011;45570;48.782;8.332;2022-08-14T20:08:12;5.03;;;2.58;;
59702;SDS011;45570;48.782;8.332;2022-08-14T20:11:02;8.10;;;2.83;;
59702;SDS011;45570;48.782;8.332;2022-08-14T20:13:58;4.82;;;2.85;;
59702;SDS011;45570;48.782;8.332;2022-08-14T20:16:38;6.00;;;2.97;;
59702;SDS011;45570;48.782;8.332;2022-08-14T20:19:09;3.25;;;2.83;;
59702;SDS011;45570;48.782;8.332;2022-08-14T20:21:43;5.05;;;2.78;;
59702;SDS011;45570;48.782;8.332;2022-08-14T20:24:35;3.60;;;2.58;;
59702;SDS011;45570;48.782;8.332;2022-08-14T20:27:20;3.85;;;2.50;;
59702;SDS011;45570;48.782;8.332;2022-08-14T20:33:02;3.47;;;2.30;;
59702;SDS011;45570;48.782;8.332;2022-08-14T20:35:39;4.50;;;2.72;;
59702;SDS011;45570;48.782;8.332;2022-08-14T20:38:13;4.22;;;3.00;;
59702;SDS011;45570;48.782;8.332;2022-08-14T20:40:58;2.20;;;2.10;;
59702;SDS011;45570;48.782;8.332;2022-08-14T20:43:35;3.88;;;2.83;;
59702;SDS011;45570;48.782;8.332;2022-08-14T20:46:23;3.75;;;2.42;;
59702;SDS011;45570;48.782;8.332;2022-08-14T20:48:57;9.15;;;2.80;;
59702;SDS011;45570;48.782;8.332;2022-08-14T20:51:31;5.63;;;2.88;;
59702;SDS011;45570;48.782;8.332;2022-08-14T20:54:20;4.15;;;2.40;;
59702;SDS011;45570;48.782;8.332;2022-08-14T20:57:04;3.28;;;2.97;;
59702;SDS011;45570;48.782;8.332;2022-08-14T20:59:37;3.15;;;2.78;;
59702;SDS011;45570;48.782;8.332;2022-08-14T21:02:20;3.00;;;2.70;;
59702;SDS011;45570;48.782;8.332;2022-08-14T21:04:56;2.78;;;2.30;;
59702;SDS011;45570;48.782;8.332;2022-08-14T21:07:26;4.38;;;2.83;;
59702;SDS011;45570;48.782;8.332;2022-08-14T21:10:04;3.42;;;2.70;;
59702;SDS011;45570;48.782;8.332;2022-08-14T21:12:58;4.05;;;2.70;;
59702;SDS011;45570;48.782;8.332;2022-08-14T21:15:47;5.80;;;2.97;;
59702;SDS011;45570;48.782;8.332;2022-08-14T21:18:27;3.88;;;2.65;;
59702;SDS011;45570;48.782;8.332;2022-08-14T21:20:59;3.35;;;2.83;;
59702;SDS011;45570;48.782;8.332;2022-08-14T21:23:34;3.20;;;2.92;;
59702;SDS011;45570;48.782;8.332;2022-08-14T21:26:21;4.25;;;3.15;;
59702;SDS011;45570;48.782;8.332;2022-08-14T21:29:11;3.75;;;3.30;;
59702;SDS011;45570;48.782;8.332;2022-08-14T21:31:40;3.22;;;2.67;;
59702;SDS011;45570;48.782;8.332;2022-08-14T21:34:23;4.57;;;2.95;;
59702;SDS011;45570;48.782;8.332;2022-08-14T21:36:58;7.63;;;3.35;;
59702;SDS011;45570;48.782;8.332;2022-08-14T21:39:35;6.30;;;3.30;;
